Time;durP1;ratioP1;P1;durP2;ratioP2;P2;SDS_P1;SDS_P2;PMS_P1;PMS_P2;Temp;Humidity;BMP_temperature;BMP_pressure;BME280_temperature;BME280_humidity;BME280_pressure;Samples;Min_cycle;Max_cycle;Signal;HPM_P1;HPM_P2
2023/07/29 00:01:35;;;;;;;2.95;1.70;;;;;;;;;;5037389;28;20053;-24
2023/07/29 00:04:01;;;;;;;2.35;1.30;;;;;;;;;;5037051;28;20046;-27
2023/07/29 00:06:28;;;;;;;3.00;1.70;;;;;;;;;;5037349;28;20406;-27
2023/07/29 00:08:54;;;;;;;5.03;1.40;;;;;;;;;;5037524;28;20108;-26
2023/07/29 00:11:20;;;;;;;3.22;1.50;;;;;;;;;;5037214;28;20040;-24
2023/07/29 00:13:47;;;;;;;3.28;1.70;;;;;;;;;;5037129;28;20025;-25
2023/07/29 00:16:15;;;;;;;2.00;1.48;;;;;;;;;;5037082;28;20025;-24
2023/07/29 00:18:41;;;;;;;2.72;1.58;;;;;;;;;;5036923;28;20033;-27
2023/07/29 00:21:07;;;;;;;2.00;1.80;;;;;;;;;;5037285;28;20091;-26
2023/07/29 00:23:33;;;;;;;3.22;1.95;;;;;;;;;;5036959;28;20049;-24
2023/07/29 00:26:00;;;;;;;3.17;1.27;;;;;;;;;;5019163;28;20104;-23
2023/07/29 00:28:26;;;;;;;2.40;1.23;;;;;;;;;;5037189;28;20084;-25
2023/07/29 00:30:52;;;;;;;1.65;1.35;;;;;;;;;;5037668;28;20033;-24
2023/07/29 00:33:19;;;;;;;2.42;1.50;;;;;;;;;;5036840;28;20045;-23
2023/07/29 00:35:45;;;;;;;5.85;1.95;;;;;;;;;;5036779;28;20032;-26
2023/07/29 00:38:11;;;;;;;2.40;1.45;;;;;;;;;;5036917;28;20030;-28
2023/07/29 00:40:38;;;;;;;2.40;1.60;;;;;;;;;;5036954;28;20032;-26
2023/07/29 00:43:04;;;;;;;1.38;1.10;;;;;;;;;;5036559;28;20086;-26
2023/07/29 00:45:31;;;;;;;1.42;1.30;;;;;;;;;;5036613;28;20026;-25
2023/07/29 00:47:57;;;;;;;1.77;1.23;;;;;;;;;;5036533;28;20033;-26
2023/07/29 00:50:23;;;;;;;1.98;1.52;;;;;;;;;;5036512;28;20098;-25
2023/07/29 00:52:50;;;;;;;2.88;1.60;;;;;;;;;;5036345;28;20022;-23
2023/07/29 00:55:16;;;;;;;2.35;1.40;;;;;;;;;;5036425;28;20045;-23
2023/07/29 00:57:45;;;;;;;2.63;1.30;;;;;;;;;;5036350;28;20037;-24
2023/07/29 01:00:11;;;;;;;2.47;1.67;;;;;;;;;;5036638;28;20044;-26
2023/07/29 01:02:37;;;;;;;1.60;1.25;;;;;;;;;;5036068;28;20100;-24
2023/07/29 01:05:03;;;;;;;1.85;1.17;;;;;;;;;;5036285;28;20495;-22
2023/07/29 01:07:51;;;;;;;1.20;1.10;;;;;;;;;;5036463;28;20026;-23
2023/07/29 01:10:21;;;;;;;1.88;1.77;;;;;;;;;;5036100;28;20088;-23
2023/07/29 01:12:47;;;;;;;3.65;1.27;;;;;;;;;;5036595;28;20466;-24
2023/07/29 01:15:46;;;;;;;3.53;1.50;;;;;;;;;;5036060;28;20037;-27
2023/07/29 01:18:16;;;;;;;3.13;1.33;;;;;;;;;;4992797;28;20053;-24
2023/07/29 01:20:43;;;;;;;1.38;1.15;;;;;;;;;;5035992;28;20337;-26
2023/07/29 01:23:09;;;;;;;1.40;1.30;;;;;;;;;;5035812;28;20018;-26
2023/07/29 01:25:35;;;;;;;2.25;1.10;;;;;;;;;;5035999;28;20053;-26
2023/07/29 01:28:01;;;;;;;1.17;1.00;;;;;;;;;;5035819;28;20057;-26
2023/07/29 01:30:32;;;;;;;4.32;1.35;;;;;;;;;;5035760;28;20032;-26
2023/07/29 01:33:08;;;;;;;1.63;1.23;;;;;;;;;;5036267;28;20021;-24
2023/07/29 01:35:41;;;;;;;1.83;1.48;;;;;;;;;;5035948;28;20056;-26
2023/07/29 01:38:12;;;;;;;2.10;1.48;;;;;;;;;;5034827;28;20037;-23
2023/07/29 01:40:38;;;;;;;1.50;1.00;;;;;;;;;;5035570;28;20103;-26
2023/07/29 01:43:04;;;;;;;2.75;1.40;;;;;;;;;;5035420;28;20022;-24
2023/07/29 01:45:35;;;;;;;1.92;1.25;;;;;;;;;;5035453;28;20026;-26
2023/07/29 01:48:01;;;;;;;1.35;1.25;;;;;;;;;;5035508;28;20032;-28
2023/07/29 01:50:27;;;;;;;1.98;1.25;;;;;;;;;;5036192;28;20176;-25
2023/07/29 01:52:53;;;;;;;1.85;1.52;;;;;;;;;;5035535;28;20030;-23
2023/07/29 01:55:19;;;;;;;1.70;1.00;;;;;;;;;;5035296;28;20029;-25
2023/07/29 01:57:46;;;;;;;1.70;1.50;;;;;;;;;;5035156;28;20079;-25
2023/07/29 02:00:12;;;;;;;2.58;1.52;;;;;;;;;;5035245;28;20049;-25
2023/07/29 02:02:38;;;;;;;3.60;2.40;;;;;;;;;;5035003;28;20018;-27
2023/07/29 02:05:05;;;;;;;2.63;1.42;;;;;;;;;;5035422;28;20083;-26
2023/07/29 02:07:31;;;;;;;1.67;1.30;;;;;;;;;;5035324;28;20033;-23
2023/07/29 02:09:57;;;;;;;2.15;1.48;;;;;;;;;;5035318;28;20024;-25
2023/07/29 02:12:23;;;;;;;2.65;1.15;;;;;;;;;;5034984;28;20105;-24
2023/07/29 02:14:49;;;;;;;4.03;1.58;;;;;;;;;;5035260;28;20030;-24
2023/07/29 02:17:15;;;;;;;3.78;1.15;;;;;;;;;;5034819;28;20095;-24
2023/07/29 02:19:41;;;;;;;1.73;1.20;;;;;;;;;;5034786;28;20029;-26
2023/07/29 02:22:07;;;;;;;1.55;1.35;;;;;;;;;;5034801;28;20025;-26
2023/07/29 02:24:34;;;;;;;1.15;0.95;;;;;;;;;;5035046;28;20475;-27
2023/07/29 02:27:00;;;;;;;1.55;1.45;;;;;;;;;;5035090;28;20026;-24
2023/07/29 02:29:26;;;;;;;3.13;1.75;;;;;;;;;;5017389;28;20349;-25
2023/07/29 02:31:52;;;;;;;2.00;1.30;;;;;;;;;;5035170;28;20072;-24
2023/07/29 02:34:18;;;;;;;4.03;1.35;;;;;;;;;;5034837;28;20567;-25
2023/07/29 02:36:45;;;;;;;2.75;1.50;;;;;;;;;;5034899;28;20029;-24
2023/07/29 02:39:11;;;;;;;2.03;1.15;;;;;;;;;;5034819;28;20021;-25
2023/07/29 02:41:37;;;;;;;1.20;0.88;;;;;;;;;;5034586;28;20022;-27
2023/07/29 02:44:03;;;;;;;2.15;1.10;;;;;;;;;;5034945;28;20045;-26
2023/07/29 02:46:29;;;;;;;2.20;1.25;;;;;;;;;;5034818;28;20029;-27
2023/07/29 02:48:56;;;;;;;2.72;1.17;;;;;;;;;;5034395;28;20025;-24
2023/07/29 02:51:22;;;;;;;2.17;1.17;;;;;;;;;;5034784;28;20026;-24
2023/07/29 02:53:48;;;;;;;2.35;1.42;;;;;;;;;;5034660;28;20031;-24
2023/07/29 02:56:14;;;;;;;2.33;1.27;;;;;;;;;;5034717;28;20325;-24
2023/07/29 02:58:40;;;;;;;3.05;1.50;;;;;;;;;;5034366;28;20036;-25
2023/07/29 03:01:07;;;;;;;3.10;1.67;;;;;;;;;;5034669;28;20030;-25
2023/07/29 03:03:33;;;;;;;4.10;1.42;;;;;;;;;;5034094;28;20436;-26
2023/07/29 03:06:03;;;;;;;1.63;1.38;;;;;;;;;;5034381;28;20127;-24
2023/07/29 03:08:29;;;;;;;1.75;1.25;;;;;;;;;;5034357;28;20029;-23
2023/07/29 03:10:56;;;;;;;1.25;1.02;;;;;;;;;;5034311;28;20026;-25
2023/07/29 03:13:23;;;;;;;1.08;1.00;;;;;;;;;;5034234;28;20360;-23
2023/07/29 03:15:49;;;;;;;2.17;1.30;;;;;;;;;;5034286;28;20036;-24
2023/07/29 03:18:16;;;;;;;1.33;0.77;;;;;;;;;;5034440;28;20041;-23
2023/07/29 03:20:42;;;;;;;3.28;1.20;;;;;;;;;;5034243;28;20095;-24
2023/07/29 03:23:09;;;;;;;2.55;0.88;;;;;;;;;;5034182;28;20056;-23
2023/07/29 03:25:35;;;;;;;3.38;1.65;;;;;;;;;;5034147;28;20072;-24
2023/07/29 03:28:01;;;;;;;1.65;1.20;;;;;;;;;;5016733;28;20029;-26
2023/07/29 03:30:27;;;;;;;1.40;0.98;;;;;;;;;;5034431;28;20026;-23
2023/07/29 03:32:53;;;;;;;1.92;0.90;;;;;;;;;;5034045;28;20026;-25
2023/07/29 03:35:19;;;;;;;1.48;1.00;;;;;;;;;;5034110;28;20057;-23
2023/07/29 03:37:45;;;;;;;2.55;1.27;;;;;;;;;;5034015;28;20415;-23
2023/07/29 03:40:11;;;;;;;1.60;1.50;;;;;;;;;;5033994;28;20170;-25
2023/07/29 03:42:37;;;;;;;1.83;1.05;;;;;;;;;;5034234;28;20045;-27
2023/07/29 03:45:04;;;;;;;1.33;1.23;;;;;;;;;;5016610;28;20488;-23
2023/07/29 03:47:30;;;;;;;2.47;2.20;;;;;;;;;;5034547;28;20480;-27
2023/07/29 03:49:56;;;;;;;1.45;1.17;;;;;;;;;;5033821;28;20032;-25
2023/07/29 03:52:22;;;;;;;1.30;1.20;;;;;;;;;;5033801;28;20021;-23
2023/07/29 03:54:48;;;;;;;2.42;1.45;;;;;;;;;;5034194;28;20033;-23
2023/07/29 03:57:14;;;;;;;2.47;1.63;;;;;;;;;;5034125;28;20053;-26
2023/07/29 03:59:40;;;;;;;2.75;1.25;;;;;;;;;;5033803;28;20037;-27
2023/07/29 04:02:06;;;;;;;2.58;1.10;;;;;;;;;;5035703;28;20104;-27
2023/07/29 04:04:33;;;;;;;1.45;1.23;;;;;;;;;;5037295;28;20044;-26
2023/07/29 04:06:59;;;;;;;1.33;1.02;;;;;;;;;;5037313;28;20032;-23
2023/07/29 04:09:25;;;;;;;1.40;1.30;;;;;;;;;;5037578;28;20034;-26
2023/07/29 04:11:51;;;;;;;1.55;1.02;;;;;;;;;;5037249;28;20034;-23
2023/07/29 04:14:18;;;;;;;2.33;1.25;;;;;;;;;;5037212;28;20448;-26
2023/07/29 04:16:45;;;;;;;0.95;0.90;;;;;;;;;;5037329;28;20045;-26
2023/07/29 04:19:11;;;;;;;1.52;1.25;;;;;;;;;;5037289;28;20036;-25
2023/07/29 04:21:37;;;;;;;2.05;1.42;;;;;;;;;;5037015;28;20029;-24
2023/07/29 04:24:03;;;;;;;1.77;1.20;;;;;;;;;;5037053;28;20024;-27
2023/07/29 04:26:29;;;;;;;1.48;1.20;;;;;;;;;;5036888;28;20018;-26
2023/07/29 04:28:55;;;;;;;2.45;1.80;;;;;;;;;;5036892;28;20022;-25
2023/07/29 04:31:22;;;;;;;1.05;0.80;;;;;;;;;;5037103;28;20345;-25
2023/07/29 04:33:48;;;;;;;1.40;1.30;;;;;;;;;;5036718;28;20171;-23
2023/07/29 04:36:14;;;;;;;3.05;1.17;;;;;;;;;;5036728;28;20044;-26
2023/07/29 04:38:40;;;;;;;2.28;1.27;;;;;;;;;;5036865;28;20452;-24
2023/07/29 04:41:08;;;;;;;3.00;1.38;;;;;;;;;;5036982;28;20033;-24
2023/07/29 04:43:34;;;;;;;1.92;0.88;;;;;;;;;;5036532;28;20083;-25
2023/07/29 04:46:01;;;;;;;2.72;1.15;;;;;;;;;;5036654;28;20398;-27
2023/07/29 04:48:27;;;;;;;1.90;1.08;;;;;;;;;;5036856;28;20022;-26
2023/07/29 04:50:53;;;;;;;1.50;1.20;;;;;;;;;;5036789;28;20333;-26
2023/07/29 04:53:19;;;;;;;1.52;1.13;;;;;;;;;;5036418;28;20152;-26
2023/07/29 04:55:46;;;;;;;1.38;1.23;;;;;;;;;;5036589;28;20027;-28
2023/07/29 04:58:12;;;;;;;1.63;1.20;;;;;;;;;;5036556;28;20424;-24
2023/07/29 05:00:38;;;;;;;2.45;1.23;;;;;;;;;;5036324;28;20025;-22
2023/07/29 05:03:04;;;;;;;2.08;1.08;;;;;;;;;;5036133;28;20042;-24
2023/07/29 05:05:30;;;;;;;1.42;0.98;;;;;;;;;;5036545;28;20044;-25
2023/07/29 05:07:56;;;;;;;2.58;1.15;;;;;;;;;;5036219;28;20100;-24
2023/07/29 05:10:22;;;;;;;1.35;0.90;;;;;;;;;;5036311;28;20349;-26
2023/07/29 05:12:48;;;;;;;1.77;1.60;;;;;;;;;;5034921;28;20052;-24
2023/07/29 05:15:14;;;;;;;1.17;0.90;;;;;;;;;;5036321;28;20364;-24
2023/07/29 05:17:40;;;;;;;1.02;1.00;;;;;;;;;;5035963;28;20030;-25
2023/07/29 05:20:07;;;;;;;1.88;1.77;;;;;;;;;;5036008;28;20018;-23
2023/07/29 05:22:33;;;;;;;0.70;0.70;;;;;;;;;;5036024;28;20033;-25
2023/07/29 05:25:00;;;;;;;0.80;0.70;;;;;;;;;;5036163;28;20053;-25
2023/07/29 05:27:26;;;;;;;2.15;1.20;;;;;;;;;;5036058;28;20105;-25
2023/07/29 05:29:52;;;;;;;1.77;0.90;;;;;;;;;;5035810;28;20427;-26
2023/07/29 05:32:18;;;;;;;1.05;0.85;;;;;;;;;;5035948;28;20457;-26
2023/07/29 05:34:44;;;;;;;2.90;1.00;;;;;;;;;;5035991;28;20033;-25
2023/07/29 05:37:10;;;;;;;1.20;1.10;;;;;;;;;;5035832;28;20109;-25
2023/07/29 05:39:37;;;;;;;1.55;1.25;;;;;;;;;;5035779;28;20432;-23
2023/07/29 05:42:03;;;;;;;1.63;1.10;;;;;;;;;;5035387;28;20485;-24
2023/07/29 05:44:33;;;;;;;2.63;1.58;;;;;;;;;;5035542;28;20013;-24
2023/07/29 05:46:59;;;;;;;2.13;1.10;;;;;;;;;;5035413;28;20109;-25
2023/07/29 05:49:25;;;;;;;1.92;1.30;;;;;;;;;;5035384;28;20100;-24
2023/07/29 05:51:52;;;;;;;1.73;1.25;;;;;;;;;;5035597;28;20087;-27
2023/07/29 05:54:19;;;;;;;2.15;1.10;;;;;;;;;;5035260;28;20453;-24
2023/07/29 05:56:45;;;;;;;1.10;1.08;;;;;;;;;;5035207;28;20029;-24
2023/07/29 05:59:11;;;;;;;3.55;1.27;;;;;;;;;;5035398;28;20377;-23
2023/07/29 06:01:37;;;;;;;2.72;1.05;;;;;;;;;;5018127;28;20018;-23
2023/07/29 06:04:04;;;;;;;1.75;1.05;;;;;;;;;;5034724;28;20057;-23
2023/07/29 06:06:30;;;;;;;2.92;0.90;;;;;;;;;;5035017;28;20021;-24
2023/07/29 06:08:56;;;;;;;1.88;1.23;;;;;;;;;;5034968;28;20032;-26
2023/07/29 06:11:22;;;;;;;1.10;0.80;;;;;;;;;;5034774;28;20471;-25
2023/07/29 06:13:48;;;;;;;2.97;1.80;;;;;;;;;;5034827;28;20125;-25
2023/07/29 06:16:14;;;;;;;1.60;1.00;;;;;;;;;;5034851;28;20049;-26
2023/07/29 06:18:40;;;;;;;3.85;1.40;;;;;;;;;;5034986;28;20026;-23
2023/07/29 06:21:07;;;;;;;3.60;1.25;;;;;;;;;;5034699;28;20068;-24
2023/07/29 06:23:34;;;;;;;1.20;1.05;;;;;;;;;;5034557;28;20363;-23
2023/07/29 06:26:00;;;;;;;1.48;0.82;;;;;;;;;;5034476;28;20087;-25
2023/07/29 06:28:26;;;;;;;1.48;1.30;;;;;;;;;;5034644;28;20413;-23
2023/07/29 06:30:53;;;;;;;1.52;1.00;;;;;;;;;;5034621;28;20030;-26
2023/07/29 06:33:19;;;;;;;1.13;0.90;;;;;;;;;;5034548;28;20030;-27
2023/07/29 06:35:45;;;;;;;1.25;1.10;;;;;;;;;;5034759;28;20038;-23
2023/07/29 06:38:11;;;;;;;2.88;1.40;;;;;;;;;;5034638;28;20026;-25
2023/07/29 06:40:37;;;;;;;2.58;1.00;;;;;;;;;;5034551;28;20018;-24
2023/07/29 06:43:03;;;;;;;1.10;0.95;;;;;;;;;;5034630;28;20033;-23
2023/07/29 06:45:29;;;;;;;1.38;1.27;;;;;;;;;;5034516;28;20026;-25
2023/07/29 06:47:56;;;;;;;3.25;0.93;;;;;;;;;;5017051;28;20467;-24
2023/07/29 06:50:22;;;;;;;1.65;1.33;;;;;;;;;;5034382;28;20026;-27
2023/07/29 06:52:48;;;;;;;1.63;1.10;;;;;;;;;;5034416;28;20022;-26
2023/07/29 06:55:14;;;;;;;0.88;0.80;;;;;;;;;;5034995;28;20448;-26
2023/07/29 06:57:40;;;;;;;1.85;1.20;;;;;;;;;;5034674;28;20060;-26
2023/07/29 07:00:09;;;;;;;1.23;1.13;;;;;;;;;;5034544;28;20096;-26
2023/07/29 07:02:35;;;;;;;0.75;0.75;;;;;;;;;;5034297;28;20013;-24
2023/07/29 07:05:01;;;;;;;0.80;0.80;;;;;;;;;;5034247;28;20409;-27
2023/07/29 07:07:27;;;;;;;0.85;0.80;;;;;;;;;;5034382;28;20487;-26
2023/07/29 07:09:53;;;;;;;1.42;1.33;;;;;;;;;;5034232;28;20515;-25
2023/07/29 07:12:19;;;;;;;1.30;1.20;;;;;;;;;;5034228;28;20036;-22
2023/07/29 07:14:45;;;;;;;1.50;1.10;;;;;;;;;;5034303;28;20037;-23
2023/07/29 07:17:11;;;;;;;0.90;0.90;;;;;;;;;;5034312;28;20026;-26
2023/07/29 07:19:37;;;;;;;1.80;1.10;;;;;;;;;;5034208;28;20033;-26
2023/07/29 07:22:04;;;;;;;1.85;1.63;;;;;;;;;;5034164;28;20037;-24
2023/07/29 07:24:30;;;;;;;2.97;1.23;;;;;;;;;;5034132;28;20021;-26
2023/07/29 07:26:56;;;;;;;1.67;1.02;;;;;;;;;;5034123;28;20044;-26
2023/07/29 07:29:22;;;;;;;1.40;1.30;;;;;;;;;;5034111;28;20033;-25
2023/07/29 07:31:52;;;;;;;2.35;1.17;;;;;;;;;;5034013;28;20033;-23
2023/07/29 07:34:19;;;;;;;1.77;0.93;;;;;;;;;;5034897;28;20491;-25
2023/07/29 07:36:45;;;;;;;1.40;0.80;;;;;;;;;;5035603;28;20033;-26
2023/07/29 07:39:11;;;;;;;2.05;1.83;;;;;;;;;;5037809;28;20060;-26
2023/07/29 07:41:38;;;;;;;1.63;1.45;;;;;;;;;;5037803;28;20026;-26
2023/07/29 07:44:04;;;;;;;1.48;0.93;;;;;;;;;;5037660;28;20026;-27
2023/07/29 07:46:30;;;;;;;2.60;1.25;;;;;;;;;;5038011;28;20135;-25
2023/07/29 07:48:56;;;;;;;3.67;1.27;;;;;;;;;;5037711;28;20025;-24
2023/07/29 07:51:22;;;;;;;2.42;1.17;;;;;;;;;;5037929;28;20449;-23
2023/07/29 07:53:49;;;;;;;1.27;0.95;;;;;;;;;;5037495;28;20044;-23
2023/07/29 07:56:16;;;;;;;2.50;0.80;;;;;;;;;;5037666;28;20048;-24
2023/07/29 07:58:42;;;;;;;1.48;1.00;;;;;;;;;;5037664;28;20356;-25
2023/07/29 08:01:09;;;;;;;4.75;1.08;;;;;;;;;;5037923;28;20030;-26
2023/07/29 08:03:36;;;;;;;2.05;1.17;;;;;;;;;;5037209;28;20049;-25
2023/07/29 08:06:02;;;;;;;5.35;1.40;;;;;;;;;;5037654;28;20025;-25
2023/07/29 08:08:29;;;;;;;3.80;1.55;;;;;;;;;;5037595;28;20025;-25
2023/07/29 08:10:55;;;;;;;2.22;1.25;;;;;;;;;;5037315;28;20025;-26
2023/07/29 08:13:22;;;;;;;1.35;1.25;;;;;;;;;;5037293;28;20357;-24
2023/07/29 08:15:49;;;;;;;1.27;0.70;;;;;;;;;;5037104;28;20349;-27
2023/07/29 08:18:15;;;;;;;1.30;0.88;;;;;;;;;;5037006;28;20551;-24
2023/07/29 08:20:41;;;;;;;2.80;1.40;;;;;;;;;;5037036;28;20092;-25
2023/07/29 08:23:08;;;;;;;1.30;1.00;;;;;;;;;;5036938;28;20033;-25
2023/07/29 08:25:34;;;;;;;1.48;0.90;;;;;;;;;;5036962;28;20033;-25
2023/07/29 08:28:00;;;;;;;1.35;1.25;;;;;;;;;;5037249;28;20021;-24
2023/07/29 08:30:26;;;;;;;1.42;1.10;;;;;;;;;;5036795;28;20018;-23
2023/07/29 08:32:52;;;;;;;1.92;1.17;;;;;;;;;;5036822;28;20021;-24
2023/07/29 08:35:18;;;;;;;0.98;0.98;;;;;;;;;;5036858;28;20048;-25
2023/07/29 08:37:44;;;;;;;1.15;1.00;;;;;;;;;;5036958;28;20104;-27
2023/07/29 08:40:10;;;;;;;0.90;0.90;;;;;;;;;;5036748;28;20025;-26
2023/07/29 08:42:38;;;;;;;1.88;1.00;;;;;;;;;;5036625;28;20088;-25
2023/07/29 08:45:08;;;;;;;1.00;1.00;;;;;;;;;;5036661;28;20048;-27
2023/07/29 08:47:34;;;;;;;1.17;1.07;;;;;;;;;;5036336;28;20436;-25
2023/07/29 08:50:02;;;;;;;0.82;0.63;;;;;;;;;;5036807;28;20326;-24
2023/07/29 08:52:31;;;;;;;3.08;0.90;;;;;;;;;;5036449;28;20025;-24
2023/07/29 08:54:58;;;;;;;1.23;0.95;;;;;;;;;;5036411;28;20041;-24
2023/07/29 08:57:24;;;;;;;2.30;1.05;;;;;;;;;;5036641;28;20026;-27
2023/07/29 08:59:50;;;;;;;1.55;1.08;;;;;;;;;;5036308;28;20112;-26
2023/07/29 09:02:16;;;;;;;1.58;1.20;;;;;;;;;;5036544;28;20076;-26
2023/07/29 09:04:43;;;;;;;1.15;1.08;;;;;;;;;;5036140;28;20042;-24
2023/07/29 09:07:10;;;;;;;1.15;1.05;;;;;;;;;;5037042;28;20033;-25
2023/07/29 09:09:36;;;;;;;1.33;1.23;;;;;;;;;;5036165;28;20033;-24
2023/07/29 09:12:02;;;;;;;0.90;0.90;;;;;;;;;;5036116;28;20080;-25
2023/07/29 09:14:29;;;;;;;1.45;1.33;;;;;;;;;;5018888;28;20467;-24
2023/07/29 09:16:55;;;;;;;1.13;1.10;;;;;;;;;;5036065;28;20032;-24
2023/07/29 09:19:21;;;;;;;3.55;1.85;;;;;;;;;;5036225;28;20041;-25
2023/07/29 09:21:47;;;;;;;1.92;1.35;;;;;;;;;;5035920;28;20101;-26
2023/07/29 09:24:17;;;;;;;3.13;1.40;;;;;;;;;;5027886;28;20022;-26
2023/07/29 09:26:49;;;;;;;1.33;1.23;;;;;;;;;;5036186;28;20040;-26
2023/07/29 09:29:15;;;;;;;1.10;1.05;;;;;;;;;;5036168;28;20060;-25
2023/07/29 09:31:41;;;;;;;1.23;0.95;;;;;;;;;;5035806;28;20025;-26
2023/07/29 09:34:08;;;;;;;3.40;1.10;;;;;;;;;;5035651;28;20034;-24
2023/07/29 09:36:35;;;;;;;1.05;0.95;;;;;;;;;;5035889;28;20449;-26
2023/07/29 09:39:03;;;;;;;1.42;1.23;;;;;;;;;;5035501;28;20029;-24
2023/07/29 09:41:32;;;;;;;1.60;1.50;;;;;;;;;;5035554;28;20021;-26
2023/07/29 09:44:00;;;;;;;0.95;0.80;;;;;;;;;;5035858;28;20380;-24
2023/07/29 09:46:32;;;;;;;1.08;0.93;;;;;;;;;;5035522;28;20105;-24
2023/07/29 09:48:59;;;;;;;1.08;0.98;;;;;;;;;;5035789;28;20105;-24
2023/07/29 09:51:25;;;;;;;1.48;1.38;;;;;;;;;;5035685;28;20045;-23
2023/07/29 09:53:52;;;;;;;1.23;1.15;;;;;;;;;;5035349;28;20448;-24
2023/07/29 09:56:18;;;;;;;1.45;1.35;;;;;;;;;;5035657;28;20350;-24
2023/07/29 09:58:45;;;;;;;1.95;1.08;;;;;;;;;;5034638;28;20029;-25
2023/07/29 10:01:11;;;;;;;1.40;1.23;;;;;;;;;;5035463;28;20344;-24
2023/07/29 10:03:38;;;;;;;1.23;1.13;;;;;;;;;;5034686;28;20037;-25
2023/07/29 10:06:04;;;;;;;3.25;1.70;;;;;;;;;;5035161;28;20033;-27
2023/07/29 10:08:32;;;;;;;1.15;1.05;;;;;;;;;;5035072;28;20449;-26
2023/07/29 10:11:01;;;;;;;3.40;1.08;;;;;;;;;;5034923;28;20041;-23
2023/07/29 10:13:28;;;;;;;1.25;1.15;;;;;;;;;;5034969;28;20022;-26
2023/07/29 10:15:57;;;;;;;1.20;1.10;;;;;;;;;;5034967;28;20036;-26
2023/07/29 10:18:24;;;;;;;1.20;1.10;;;;;;;;;;5034865;28;20590;-25
2023/07/29 10:20:51;;;;;;;1.20;1.10;;;;;;;;;;5034899;28;20025;-26
2023/07/29 10:23:19;;;;;;;1.10;1.10;;;;;;;;;;5034942;28;20448;-24
2023/07/29 10:25:50;;;;;;;2.25;1.90;;;;;;;;;;5034781;28;20448;-24
2023/07/29 10:28:18;;;;;;;1.33;1.17;;;;;;;;;;5034745;28;20131;-23
2023/07/29 10:30:45;;;;;;;2.67;1.13;;;;;;;;;;5034708;28;20033;-24
2023/07/29 10:33:11;;;;;;;1.42;1.17;;;;;;;;;;5034620;28;20029;-26
2023/07/29 10:35:38;;;;;;;1.15;1.10;;;;;;;;;;5034950;28;20040;-24
2023/07/29 10:38:07;;;;;;;0.95;0.90;;;;;;;;;;5034541;28;20112;-23
2023/07/29 10:41:08;;;;;;;1.30;1.20;;;;;;;;;;5034904;28;20097;-24
2023/07/29 10:43:34;;;;;;;;;;;;;;;;;;4955284;29;20102;-26
2023/07/29 10:46:22;;;;;;;1.55;1.00;;;;;;;;;;5018718;28;19916;-26
2023/07/29 10:48:51;;;;;;;5.18;1.27;;;;;;;;;;5034809;28;20034;-26
2023/07/29 10:51:32;;;;;;;1.25;1.00;;;;;;;;;;5034514;28;20029;-24
2023/07/29 10:54:12;;;;;;;1.30;0.85;;;;;;;;;;5034455;28;20022;-27
2023/07/29 10:56:40;;;;;;;0.80;0.80;;;;;;;;;;5034518;28;20124;-25
2023/07/29 10:59:12;;;;;;;1.10;1.10;;;;;;;;;;5034408;28;20483;-26
2023/07/29 11:01:39;;;;;;;1.25;1.15;;;;;;;;;;5034434;28;20453;-25
2023/07/29 11:04:23;;;;;;;0.77;0.75;;;;;;;;;;5030347;28;20050;-27
2023/07/29 11:07:05;;;;;;;1.15;1.05;;;;;;;;;;5034702;28;20022;-23
2023/07/29 11:09:49;;;;;;;1.45;1.33;;;;;;;;;;5034387;28;20084;-26
2023/07/29 11:12:33;;;;;;;0.98;0.98;;;;;;;;;;5038359;28;20514;-26
2023/07/29 11:15:06;;;;;;;1.38;1.10;;;;;;;;;;5038422;28;20087;-27
2023/07/29 11:17:36;;;;;;;1.73;1.00;;;;;;;;;;5038382;28;20140;-24
2023/07/29 11:20:03;;;;;;;2.10;1.08;;;;;;;;;;5038596;28;20029;-26
2023/07/29 11:22:30;;;;;;;2.90;1.02;;;;;;;;;;5038386;28;20101;-26
2023/07/29 11:24:56;;;;;;;1.00;1.00;;;;;;;;;;5038521;28;20356;-24
2023/07/29 11:27:23;;;;;;;1.25;1.15;;;;;;;;;;5038198;28;20407;-25
2023/07/29 11:29:49;;;;;;;1.10;1.10;;;;;;;;;;5038430;28;20415;-26
2023/07/29 11:32:16;;;;;;;1.40;1.30;;;;;;;;;;5038276;28;20091;-25
2023/07/29 11:34:42;;;;;;;1.02;1.02;;;;;;;;;;5038054;28;20074;-23
2023/07/29 11:37:11;;;;;;;1.17;1.08;;;;;;;;;;5037969;28;20033;-25
2023/07/29 11:39:45;;;;;;;1.55;1.33;;;;;;;;;;5038155;28;20326;-26
2023/07/29 11:42:15;;;;;;;2.00;1.30;;;;;;;;;;5037868;28;20330;-26
2023/07/29 11:44:41;;;;;;;2.20;1.30;;;;;;;;;;5037952;28;20461;-26
2023/07/29 11:47:08;;;;;;;1.15;1.05;;;;;;;;;;5037796;28;20033;-27
2023/07/29 11:49:34;;;;;;;1.33;1.23;;;;;;;;;;5037765;28;20025;-27
2023/07/29 11:52:01;;;;;;;2.10;0.98;;;;;;;;;;5037701;28;20039;-26
2023/07/29 11:54:27;;;;;;;1.30;1.20;;;;;;;;;;5037705;28;20113;-25
2023/07/29 11:56:53;;;;;;;1.42;1.30;;;;;;;;;;5037919;28;20105;-24
2023/07/29 11:59:20;;;;;;;1.23;1.05;;;;;;;;;;5037501;28;20029;-25
2023/07/29 12:01:46;;;;;;;1.38;1.20;;;;;;;;;;5037849;28;20411;-25
2023/07/29 12:04:13;;;;;;;1.50;1.40;;;;;;;;;;5037363;28;20072;-23
2023/07/29 12:06:39;;;;;;;1.17;1.10;;;;;;;;;;5037763;28;20025;-23
2023/07/29 12:09:06;;;;;;;2.50;1.30;;;;;;;;;;5037728;28;20348;-24
2023/07/29 12:11:32;;;;;;;1.40;1.30;;;;;;;;;;5037418;28;20400;-23
2023/07/29 12:14:00;;;;;;;1.48;1.27;;;;;;;;;;5037291;28;20025;-23
2023/07/29 12:16:26;;;;;;;1.58;1.10;;;;;;;;;;5037289;28;20091;-23
2023/07/29 12:18:53;;;;;;;1.33;1.23;;;;;;;;;;5037456;28;20038;-25
2023/07/29 12:21:19;;;;;;;1.17;1.10;;;;;;;;;;5037242;28;20025;-26
2023/07/29 12:23:46;;;;;;;1.42;1.23;;;;;;;;;;5036483;28;20354;-24
2023/07/29 12:26:12;;;;;;;1.42;1.33;;;;;;;;;;5037135;28;20026;-26
2023/07/29 12:28:38;;;;;;;1.42;1.33;;;;;;;;;;5037098;28;20038;-26
2023/07/29 12:31:08;;;;;;;1.70;1.40;;;;;;;;;;5037085;28;20147;-24
2023/07/29 12:33:35;;;;;;;1.75;1.63;;;;;;;;;;5037189;28;20034;-24
2023/07/29 12:36:01;;;;;;;1.27;1.17;;;;;;;;;;5037218;28;20362;-27
2023/07/29 12:38:28;;;;;;;1.15;1.10;;;;;;;;;;5036767;28;20032;-25
2023/07/29 12:40:54;;;;;;;1.23;1.15;;;;;;;;;;5037008;28;20036;-24
2023/07/29 12:43:20;;;;;;;0.90;0.90;;;;;;;;;;5036645;28;20079;-24
2023/07/29 12:45:46;;;;;;;1.48;1.38;;;;;;;;;;5036768;28;20071;-24
2023/07/29 12:48:13;;;;;;;1.50;1.40;;;;;;;;;;5036698;28;20029;-26
2023/07/29 12:50:39;;;;;;;1.30;1.20;;;;;;;;;;5036692;28;20456;-26
2023/07/29 12:53:05;;;;;;;1.48;1.38;;;;;;;;;;5036562;28;20033;-24
2023/07/29 12:55:31;;;;;;;1.30;1.20;;;;;;;;;;5036856;28;20033;-26
2023/07/29 12:58:01;;;;;;;1.15;1.10;;;;;;;;;;5036478;28;20025;-25
2023/07/29 13:00:27;;;;;;;2.10;1.58;;;;;;;;;;5036696;28;20048;-23
2023/07/29 13:02:53;;;;;;;0.90;0.90;;;;;;;;;;5036395;28;20018;-25
2023/07/29 13:05:19;;;;;;;1.70;1.05;;;;;;;;;;5036240;28;20037;-26
2023/07/29 13:07:45;;;;;;;1.40;1.30;;;;;;;;;;5036339;28;20044;-25
2023/07/29 13:10:11;;;;;;;1.45;1.35;;;;;;;;;;5036328;28;20036;-23
2023/07/29 13:12:38;;;;;;;1.30;1.30;;;;;;;;;;5036152;28;20029;-22
2023/07/29 13:15:04;;;;;;;1.48;1.38;;;;;;;;;;5036185;28;20032;-24
2023/07/29 13:17:30;;;;;;;1.30;1.20;;;;;;;;;;5018723;28;20029;-25
2023/07/29 13:19:56;;;;;;;1.70;1.60;;;;;;;;;;5036050;28;20037;-23
2023/07/29 13:22:22;;;;;;;1.35;1.30;;;;;;;;;;5018549;28;20032;-24
2023/07/29 13:24:48;;;;;;;1.27;1.17;;;;;;;;;;5036013;28;20028;-25
2023/07/29 13:27:14;;;;;;;1.08;0.93;;;;;;;;;;5035932;28;20025;-23
2023/07/29 13:29:41;;;;;;;1.20;1.20;;;;;;;;;;5036200;28;20032;-24
2023/07/29 13:32:08;;;;;;;1.20;1.20;;;;;;;;;;5036094;28;20091;-23
2023/07/29 13:34:34;;;;;;;1.35;1.25;;;;;;;;;;5034848;28;20164;-23
2023/07/29 13:37:00;;;;;;;1.13;1.13;;;;;;;;;;5035680;28;20025;-24
2023/07/29 13:39:27;;;;;;;1.30;1.17;;;;;;;;;;5035617;28;20117;-26
2023/07/29 13:41:53;;;;;;;1.00;1.00;;;;;;;;;;5035889;28;20032;-23
2023/07/29 13:44:20;;;;;;;1.25;1.17;;;;;;;;;;5035624;28;20049;-23
2023/07/29 13:46:46;;;;;;;0.88;0.88;;;;;;;;;;5036117;28;20478;-27
2023/07/29 13:49:12;;;;;;;1.30;1.20;;;;;;;;;;5035567;28;20368;-24
2023/07/29 13:51:38;;;;;;;1.20;1.10;;;;;;;;;;5035523;28;20029;-26
2023/07/29 13:54:04;;;;;;;1.10;1.00;;;;;;;;;;5035345;28;20029;-23
2023/07/29 13:56:37;;;;;;;1.67;1.27;;;;;;;;;;5113367;27;20381;-23
2023/07/29 13:59:03;;;;;;;0.98;0.98;;;;;;;;;;5112594;28;20032;-20
2023/07/29 14:01:29;;;;;;;1.63;1.52;;;;;;;;;;5112807;28;20111;-22
2023/07/29 14:03:55;;;;;;;1.38;1.15;;;;;;;;;;5112698;28;20350;-22
2023/07/29 14:06:21;;;;;;;1.10;1.10;;;;;;;;;;5112703;28;20039;-22
2023/07/29 14:08:48;;;;;;;1.63;1.15;;;;;;;;;;5112391;28;20031;-22
2023/07/29 14:11:14;;;;;;;1.35;1.25;;;;;;;;;;5112630;28;20407;-22
2023/07/29 14:13:40;;;;;;;1.55;1.15;;;;;;;;;;5112217;28;20122;-22
2023/07/29 14:16:06;;;;;;;1.33;1.30;;;;;;;;;;5112737;28;20035;-21
2023/07/29 14:18:32;;;;;;;0.98;0.98;;;;;;;;;;5112460;28;20020;-20
2023/07/29 14:20:58;;;;;;;2.00;1.40;;;;;;;;;;5112161;28;20090;-21
2023/07/29 14:23:24;;;;;;;1.23;1.17;;;;;;;;;;5112073;28;20024;-18
2023/07/29 14:25:50;;;;;;;1.67;1.58;;;;;;;;;;5112020;28;20099;-21
2023/07/29 14:28:16;;;;;;;2.75;1.27;;;;;;;;;;5112270;28;20360;-21
2023/07/29 14:30:42;;;;;;;2.47;1.42;;;;;;;;;;5111941;28;20431;-21
2023/07/29 14:33:08;;;;;;;1.27;1.25;;;;;;;;;;5111853;28;20035;-21
2023/07/29 14:35:35;;;;;;;1.73;1.20;;;;;;;;;;5112079;28;20056;-20
2023/07/29 14:38:01;;;;;;;1.23;1.20;;;;;;;;;;5112115;28;20031;-21
2023/07/29 14:40:27;;;;;;;1.40;1.27;;;;;;;;;;5111764;28;20038;-26
2023/07/29 14:42:53;;;;;;;0.95;0.95;;;;;;;;;;5111910;28;20030;-20